Flight Track Log - Related Links

Times and Time Zones

All times are in EDT time to prevent confusion due to time zone crossing. See the N1926A flight status page for this flight to view local times or setup timezone preferences in your user account.

Time Position Orientation Groundspeed Altitude Reporting Facility
EDT Latitude Longitude Course Direction KTS MPH feet Rate Location/Type
Wed 03:50:46 PM 30.2878 -87.6625 North 131 151 800  Level Jacksonville Center
Wed 03:51:46 PM 30.3319 -87.6597 North 197 227 2,900 1,835 Climbing Jacksonville Center
Wed 03:52:47 PM 30.3825 -87.6478 12° North 194 223 4,500 1,706 Climbing Jacksonville Center
Wed 03:53:28 PM 30.4147 -87.6181 38° Northeast 198 228 5,800 1,881 Climbing Jacksonville Center
Wed 03:53:54 PM 30.4358 -87.6119 14° North 207 238 6,600 2,100 Climbing Jacksonville Center
Wed 03:54:28 PM 30.4714 -87.6114 North 203 234 7,900 2,234 Climbing Jacksonville Center
Wed 03:55:28 PM 30.5256 -87.6117 360° North 208 239 10,100 2,050 Climbing Jacksonville Center
Wed 03:56:28 PM 30.5747 -87.5828 27° Northeast 197 227 12,000 1,950 Climbing Jacksonville Center
Wed 03:57:28 PM 30.6078 -87.5311 53° Northeast 183 211 14,000 1,450 Climbing Jacksonville Center
Wed 03:58:28 PM 30.6456 -87.4678 55° Northeast 204 235 14,900 450 Climbing Jacksonville Center
Wed 03:59:28 PM 30.6878 -87.3997 54° Northeast 233 268 14,900  Level Jacksonville Center
Wed 04:00:28 PM 30.7400 -87.3372 46° Northeast 250 288 14,900  Level Jacksonville Center
Wed 04:01:28 PM 30.7925 -87.2742 46° Northeast 262 302 14,900  Level Jacksonville Center
Wed 04:02:28 PM 30.8664 -87.2461 18° North 262 302 14,900  Level Jacksonville Center
Wed 04:03:28 PM 30.9344 -87.2058 27° Northeast 262 302 14,900  Level Jacksonville Center
Wed 04:04:28 PM 31.0008 -87.1578 32° Northeast 272 313 14,900  Level Jacksonville Center
Wed 04:05:28 PM 31.0650 -87.1122 31° Northeast 272 313 14,900  Level Jacksonville Center
Wed 04:06:28 PM 31.1253 -87.0592 37° Northeast 267 307 14,900  Level Jacksonville Center
Wed 04:07:28 PM 31.1875 -87.0086 35° Northeast 267 307 14,900 29 Level Jacksonville Center
Wed 04:09:52 PM 31.3442 -86.8933 32° Northeast 274 315 15,000 29 Climbing Atlanta Center
Wed 04:10:52 PM 31.4119 -86.8517 28° Northeast 274 315 15,000  Level Atlanta Center
Wed 04:11:52 PM 31.4633 -86.7994 41° Northeast 274 315 15,000  Level Atlanta Center
Wed 04:12:52 PM 31.5208 -86.7428 40° Northeast 269 310 15,000  Level Atlanta Center
Wed 04:13:52 PM 31.5847 -86.6911 35° Northeast 269 310 15,000  Level Atlanta Center
Wed 04:14:52 PM 31.6461 -86.6442 33° Northeast 269 310 15,000 -250 Level Atlanta Center
Wed 04:15:52 PM 31.7097 -86.5922 35° Northeast 269 310 14,500 -500 Descending Atlanta Center
Wed 04:16:52 PM 31.7756 -86.5381 35° Northeast 269 310 14,000 -850 Descending Atlanta Center
Wed 04:17:52 PM 31.8414 -86.4786 37° Northeast 274 315 12,800 -1,000 Descending Atlanta Center
Wed 04:18:52 PM 31.9072 -86.4217 36° Northeast 280 322 12,000 -1,300 Descending Atlanta Center
Wed 04:19:52 PM 31.9733 -86.3597 38° Northeast 286 329 10,200 -1,700 Descending Atlanta Center
Wed 04:20:52 PM 32.0389 -86.3053 35° Northeast 291 335 8,600 -1,650 Descending Atlanta Center
Wed 04:21:52 PM 32.1025 -86.2506 36° Northeast 291 335 6,900 -1,450 Descending Atlanta Center
Wed 04:22:52 PM 32.1619 -86.1931 39° Northeast 284 327 5,700 -900 Descending Atlanta Center
Wed 04:23:52 PM 32.2278 -86.1356 36° Northeast 272 313 5,100 -600 Descending Atlanta Center
Wed 04:25:00 PM 32.2799 -86.0757 44° Northeast  Level FlightAware Approximate

Login

Don't have an account? Register now (free) for customized features, flight alerts, and more!